createdAt,value
2022-10-06T00:02:25.438Z,4.53
2022-10-06T00:04:52.163Z,4.00
2022-10-06T00:07:18.872Z,4.70
2022-10-06T00:09:45.638Z,4.50
2022-10-06T00:12:12.314Z,4.85
2022-10-06T00:14:39.030Z,5.07
2022-10-06T00:17:05.805Z,5.25
2022-10-06T00:19:32.506Z,4.80
2022-10-06T00:21:59.174Z,4.90
2022-10-06T00:24:25.966Z,5.40
2022-10-06T00:26:52.651Z,4.72
2022-10-06T00:29:19.296Z,5.38
2022-10-06T00:31:46.133Z,5.38
2022-10-06T00:34:13.233Z,4.60
2022-10-06T00:36:40.306Z,4.70
2022-10-06T00:39:07.106Z,5.13
2022-10-06T00:41:33.811Z,4.90
2022-10-06T00:44:01.870Z,5.15
2022-10-06T00:46:45.621Z,4.75
2022-10-06T00:49:25.025Z,4.50
2022-10-06T00:52:00.237Z,4.70
2022-10-06T00:54:27.855Z,4.82
2022-10-06T00:56:54.634Z,4.75
2022-10-06T00:59:21.476Z,5.00
2022-10-06T01:01:51.738Z,4.53
2022-10-06T01:04:18.813Z,4.90
2022-10-06T01:06:50.049Z,4.68
2022-10-06T01:09:18.617Z,4.78
2022-10-06T01:11:48.540Z,5.30
2022-10-06T01:14:15.511Z,4.68
2022-10-06T01:16:45.401Z,4.72
2022-10-06T01:19:21.899Z,5.07
2022-10-06T01:21:51.402Z,4.47
2022-10-06T01:24:18.975Z,4.80
2022-10-06T01:26:50.215Z,4.80
2022-10-06T01:29:17.616Z,4.10
2022-10-06T01:31:44.350Z,4.50
2022-10-06T01:34:11.224Z,4.60
2022-10-06T01:36:40.783Z,4.88
2022-10-06T01:39:07.480Z,4.55
2022-10-06T01:41:34.627Z,4.55
2022-10-06T01:44:01.324Z,5.00
2022-10-06T01:46:30.093Z,4.47
2022-10-06T01:48:56.992Z,4.93
2022-10-06T01:51:23.762Z,4.70
2022-10-06T01:53:50.447Z,4.47
2022-10-06T01:56:17.304Z,4.85
2022-10-06T01:58:43.948Z,4.88
2022-10-06T02:01:10.818Z,4.88
2022-10-06T02:03:39.057Z,4.93
2022-10-06T02:06:06.107Z,4.88
2022-10-06T02:08:33.262Z,4.38
2022-10-06T02:11:09.342Z,5.15
2022-10-06T02:13:37.630Z,4.35
2022-10-06T02:16:06.912Z,4.78
2022-10-06T02:18:34.674Z,4.97
2022-10-06T02:21:02.818Z,4.97
2022-10-06T02:23:30.533Z,5.18
2022-10-06T02:26:01.891Z,4.78
2022-10-06T02:28:29.500Z,5.13
2022-10-06T02:31:04.396Z,5.13
2022-10-06T02:33:31.770Z,5.05
2022-10-06T02:35:58.548Z,4.88
2022-10-06T02:38:28.249Z,5.40
2022-10-06T02:40:55.145Z,5.40
2022-10-06T02:43:22.133Z,5.70
2022-10-06T02:46:00.321Z,5.43
2022-10-06T02:48:28.109Z,5.80
2022-10-06T02:51:03.289Z,5.72
2022-10-06T02:53:30.407Z,5.65
2022-10-06T02:56:02.084Z,5.90
2022-10-06T02:58:30.518Z,5.30
2022-10-06T03:01:09.600Z,5.68
2022-10-06T03:03:37.106Z,5.65
2022-10-06T03:06:06.835Z,6.38
2022-10-06T03:08:33.920Z,6.38
2022-10-06T03:11:02.372Z,5.82
2022-10-06T03:13:30.712Z,5.70
2022-10-06T03:15:57.762Z,6.20
2022-10-06T03:18:25.029Z,5.88
2022-10-06T03:20:54.096Z,6.15
2022-10-06T03:23:20.757Z,5.95
2022-10-06T03:25:55.968Z,6.75
2022-10-06T03:28:22.704Z,7.50
2022-10-06T03:30:49.593Z,7.93
2022-10-06T03:33:16.329Z,9.52
2022-10-06T03:35:43.033Z,9.45
2022-10-06T03:38:09.704Z,9.75
2022-10-06T03:40:36.372Z,9.30
2022-10-06T03:43:03.043Z,8.82
2022-10-06T03:45:29.702Z,10.00
2022-10-06T03:47:56.397Z,9.60
2022-10-06T03:50:23.057Z,9.85
2022-10-06T03:52:51.512Z,10.88
2022-10-06T03:55:18.203Z,10.02
2022-10-06T03:57:44.858Z,10.38
2022-10-06T04:00:12.481Z,11.02
2022-10-06T04:02:39.189Z,11.48
2022-10-06T04:05:06.411Z,9.82
2022-10-06T04:07:33.065Z,11.07
2022-10-06T04:09:59.817Z,11.35
2022-10-06T04:12:26.658Z,11.60
2022-10-06T04:14:57.790Z,10.77
2022-10-06T04:17:26.575Z,11.65
2022-10-06T04:19:53.241Z,10.48
2022-10-06T04:22:19.961Z,11.18
2022-10-06T04:24:46.644Z,15.02
2022-10-06T04:27:28.350Z,17.92
2022-10-06T04:32:23.346Z,13.30
2022-10-06T04:34:49.993Z,12.63
2022-10-06T04:37:16.790Z,12.80
2022-10-06T04:39:43.584Z,11.75
2022-10-06T04:42:10.250Z,12.45
2022-10-06T04:44:37.039Z,12.00
2022-10-06T04:47:04.438Z,11.23
2022-10-06T04:49:31.821Z,11.80
2022-10-06T04:51:58.536Z,11.85
2022-10-06T04:54:27.932Z,11.38
2022-10-06T04:59:43.925Z,12.70
2022-10-06T05:02:10.971Z,11.68
2022-10-06T05:04:37.696Z,12.40
2022-10-06T05:07:04.371Z,11.73
2022-10-06T05:09:31.338Z,11.82
2022-10-06T05:11:58.834Z,13.90
2022-10-06T05:14:25.512Z,12.75
2022-10-06T05:16:52.224Z,12.82
2022-10-06T05:19:19.012Z,11.75
2022-10-06T05:21:45.677Z,11.48
2022-10-06T05:24:12.381Z,11.25
2022-10-06T05:26:39.042Z,11.80
2022-10-06T05:29:05.764Z,11.07
2022-10-06T05:31:35.233Z,11.98
2022-10-06T05:34:03.465Z,11.45
2022-10-06T05:36:34.158Z,11.10
2022-10-06T05:39:01.599Z,10.73
2022-10-06T05:41:30.625Z,11.73
2022-10-06T05:43:58.715Z,10.93
2022-10-06T05:46:28.725Z,10.35
2022-10-06T05:49:00.970Z,11.05
2022-10-06T05:51:32.569Z,9.48
2022-10-06T05:56:32.390Z,10.63
2022-10-06T05:59:00.279Z,9.35
2022-10-06T06:01:40.259Z,9.60
2022-10-06T06:04:09.618Z,9.85
2022-10-06T06:06:44.343Z,9.52
2022-10-06T06:09:12.393Z,10.18
2022-10-06T06:11:41.778Z,11.07
2022-10-06T06:14:14.229Z,10.57
2022-10-06T06:16:42.268Z,10.32
2022-10-06T06:19:11.410Z,11.27
2022-10-06T06:21:38.679Z,8.70
2022-10-06T06:24:06.309Z,8.95
2022-10-06T06:26:36.931Z,7.90
2022-10-06T06:29:05.527Z,8.10
2022-10-06T06:31:37.443Z,8.43
2022-10-06T06:34:06.883Z,16.25
2022-10-06T06:36:41.100Z,37.88
2022-10-06T06:39:13.741Z,8.77
2022-10-06T06:41:49.043Z,10.80
2022-10-06T06:44:16.300Z,12.98
2022-10-06T06:46:45.005Z,39.58
2022-10-06T06:49:12.317Z,11.00
2022-10-06T06:51:44.113Z,8.75
2022-10-06T06:54:13.089Z,6.97
2022-10-06T06:56:40.487Z,8.27
2022-10-06T06:59:09.264Z,7.25
2022-10-06T07:01:37.271Z,8.52
2022-10-06T07:04:04.692Z,6.90
2022-10-06T07:06:32.462Z,7.95
2022-10-06T07:09:00.036Z,5.70
2022-10-06T07:11:32.540Z,4.80
2022-10-06T07:14:04.928Z,4.57
2022-10-06T07:16:51.145Z,5.60
2022-10-06T07:19:57.954Z,4.32
2022-10-06T07:22:46.280Z,4.65
2022-10-06T07:25:26.363Z,4.50
2022-10-06T07:27:53.720Z,4.80
2022-10-06T07:30:27.786Z,6.38
2022-10-06T07:32:55.457Z,7.30
2022-10-06T07:35:23.942Z,6.82
2022-10-06T07:37:53.335Z,5.40
2022-10-06T07:40:20.152Z,6.53
2022-10-06T07:42:52.307Z,5.57
2022-10-06T07:45:39.181Z,5.80
2022-10-06T07:48:14.644Z,5.25
2022-10-06T07:50:44.770Z,5.65
2022-10-06T07:53:12.633Z,5.32
2022-10-06T07:55:41.386Z,5.20
2022-10-06T07:58:19.628Z,5.57
2022-10-06T08:00:48.746Z,5.22
2022-10-06T08:03:19.311Z,5.82
2022-10-06T08:05:50.295Z,5.78
2022-10-06T08:08:18.047Z,5.45
2022-10-06T08:10:52.956Z,5.82
2022-10-06T08:13:19.928Z,6.78
2022-10-06T08:15:47.616Z,6.07
2022-10-06T08:18:33.772Z,5.50
2022-10-06T08:21:01.169Z,6.03
2022-10-06T08:23:27.856Z,5.07
2022-10-06T08:25:56.450Z,5.60
2022-10-06T08:28:24.540Z,5.75
2022-10-06T08:30:52.542Z,5.90
2022-10-06T08:33:21.395Z,5.90
2022-10-06T08:35:48.418Z,6.70
2022-10-06T08:38:15.156Z,4.82
2022-10-06T08:40:44.054Z,4.50
2022-10-06T08:43:19.710Z,6.20
2022-10-06T08:45:47.754Z,5.45
2022-10-06T08:48:18.944Z,5.00
2022-10-06T08:51:06.141Z,4.97
2022-10-06T08:53:47.189Z,5.10
2022-10-06T08:59:04.623Z,5.72
2022-10-06T09:01:57.582Z,4.88
2022-10-06T09:04:32.157Z,4.82
2022-10-06T09:07:12.558Z,4.88
2022-10-06T09:10:03.657Z,5.00
2022-10-06T09:12:33.160Z,4.32
